地図

経路データ

SID SEASON NUMBER BASIN SUBBASIN NAME ISO_TIME NATURE LAT LON WMO_WIND WMO_PRES WMO_AGENCY TRACK_TYPE DIST2LAND LANDFALL IFLAG USA_AGENCY USA_ATCF_ID USA_LAT USA_LON USA_RECORD USA_STATUS USA_WIND USA_PRES USA_SSHS USA_R34_NE USA_R34_SE USA_R34_SW USA_R34_NW USA_R50_NE USA_R50_SE USA_R50_SW USA_R50_NW USA_R64_NE USA_R64_SE USA_R64_SW USA_R64_NW USA_POCI USA_ROCI USA_RMW USA_EYE TOKYO_LAT TOKYO_LON TOKYO_GRADE TOKYO_WIND TOKYO_PRES TOKYO_R50_DIR TOKYO_R50_LONG TOKYO_R50_SHORT TOKYO_R30_DIR TOKYO_R30_LONG TOKYO_R30_SHORT TOKYO_LAND CMA_LAT CMA_LON CMA_CAT CMA_WIND CMA_PRES HKO_LAT HKO_LON HKO_CAT HKO_WIND HKO_PRES NEWDELHI_LAT NEWDELHI_LON NEWDELHI_GRADE NEWDELHI_WIND NEWDELHI_PRES NEWDELHI_CI NEWDELHI_DP NEWDELHI_POCI REUNION_LAT REUNION_LON REUNION_TYPE REUNION_WIND REUNION_PRES REUNION_TNUM REUNION_CI REUNION_RMW REUNION_R34_NE REUNION_R34_SE REUNION_R34_SW REUNION_R34_NW REUNION_R50_NE REUNION_R50_SE REUNION_R50_SW REUNION_R50_NW REUNION_R64_NE REUNION_R64_SE REUNION_R64_SW REUNION_R64_NW BOM_LAT BOM_LON BOM_TYPE BOM_WIND BOM_PRES BOM_TNUM BOM_CI BOM_RMW BOM_R34_NE BOM_R34_SE BOM_R34_SW BOM_R34_NW BOM_R50_NE BOM_R50_SE BOM_R50_SW BOM_R50_NW BOM_R64_NE BOM_R64_SE BOM_R64_SW BOM_R64_NW BOM_ROCI BOM_POCI BOM_EYE BOM_POS_METHOD BOM_PRES_METHOD NADI_LAT NADI_LON NADI_CAT NADI_WIND NADI_PRES WELLINGTON_LAT WELLINGTON_LON WELLINGTON_WIND WELLINGTON_PRES DS824_LAT DS824_LON DS824_STAGE DS824_WIND DS824_PRES TD9636_LAT TD9636_LON TD9636_STAGE TD9636_WIND TD9636_PRES TD9635_LAT TD9635_LON TD9635_WIND TD9635_PRES TD9635_ROCI NEUMANN_LAT NEUMANN_LON NEUMANN_CLASS NEUMANN_WIND NEUMANN_PRES MLC_LAT MLC_LON MLC_CLASS MLC_WIND MLC_PRES USA_GUST BOM_GUST BOM_GUST_PER REUNION_GUST REUNION_GUST_PER USA_SEAHGT USA_SEARAD_NE USA_SEARAD_SE USA_SEARAD_SW USA_SEARAD_NW STORM_SPEED STORM_DIR
1987263N10241 1987 78 EP MM OTIS 1987-09-20 00:00:00 TS 10.2000 -119.500 30 hurdat_epa main 1743 1740 O_________O___ hurdat_epa EP151987 10.2000 -119.500 TD 30 -1 10.2000 -119.500 1 30 5 306
1987263N10241 1987 78 EP MM OTIS 1987-09-20 03:00:00 TS 10.3480 -119.707 main 1746 1734 P_________P___ EP151987 10.3275 -119.720 TD 30 -1 10.4095 -119.670 1 30 5 311
1987263N10241 1987 78 EP MM OTIS 1987-09-20 06:00:00 TS 10.5288 -119.883 30 hurdat_epa main 1741 1729 O_________P___ hurdat_epa EP151987 10.5000 -119.900 TD 30 -1 10.6151 -119.832 1 30 5 324
1987263N10241 1987 78 EP MM OTIS 1987-09-20 09:00:00 TS 10.7602 -120.006 main 1720 1709 P_________P___ EP151987 10.7425 -120.015 TD 30 -1 10.8132 -119.978 1 30 5 336
1987263N10241 1987 78 EP MM OTIS 1987-09-20 12:00:00 TS 11.0000 -120.100 30 hurdat_epa main 1709 1698 O_________O___ hurdat_epa EP151987 11.0000 -120.100 TD 30 -1 11.0000 -120.100 1 30 5 336
1987263N10241 1987 78 EP MM OTIS 1987-09-20 15:00:00 TS 11.1995 -120.204 main 1698 1687 P_________P___ EP151987 11.2075 -120.208 TD 32 -1 11.1756 -120.193 1 33 4 334
1987263N10241 1987 78 EP MM OTIS 1987-09-20 18:00:00 TS 11.3887 -120.291 35 hurdat_epa main 1687 1670 O_________P___ hurdat_epa EP151987 11.4000 -120.300 TS 35 0 11.3549 -120.265 1 37 4 340
1987263N10241 1987 78 EP MM OTIS 1987-09-20 21:00:00 TS 11.5723 -120.345 main 1670 1660 P_________P___ EP151987 11.5775 -120.350 TS 40 0 11.5568 -120.330 1 41 4 346
1987263N10241 1987 78 EP MM OTIS 1987-09-21 00:00:00 TS 11.8000 -120.400 45 hurdat_epa main 1660 1641 O_________O___ hurdat_epa EP151987 11.8000 -120.400 TS 45 0 11.8000 -120.400 2 45 6 346
1987263N10241 1987 78 EP MM OTIS 1987-09-21 03:00:00 TS 12.1274 -120.489 main 1641 1615 P_________P___ EP151987 12.1275 -120.492 TS 50 0 12.1271 -120.477 2 50 7 345
1987263N10241 1987 78 EP MM OTIS 1987-09-21 06:00:00 TS 12.4981 -120.591 55 hurdat_epa main 1615 1598 O_________P___ hurdat_epa EP151987 12.5000 -120.600 TS 55 0 12.4924 -120.563 2 55 8 346
1987263N10241 1987 78 EP MM OTIS 1987-09-21 09:00:00 TS 12.8641 -120.681 main 1590 1573 P_________P___ EP151987 12.8650 -120.685 TS 60 0 12.8615 -120.667 2 60 7 344
1987263N10241 1987 78 EP MM OTIS 1987-09-21 12:00:00 TS 13.2000 -120.800 65 hurdat_epa main 1573 1562 O_________O___ hurdat_epa EP151987 13.2000 -120.800 HU 65 1 13.2000 -120.800 3 65 7 334
1987263N10241 1987 78 EP MM OTIS 1987-09-21 15:00:00 TS 13.4717 -120.984 main 1562 1550 P_________P___ EP151987 13.4725 -120.985 HU 77 1 13.4691 -120.979 3 71 6 322
1987263N10241 1987 78 EP MM OTIS 1987-09-21 18:00:00 TS 13.7007 -121.196 90 hurdat_epa main 1556 1551 O_________P___ hurdat_epa EP151987 13.7000 -121.200 HU 90 2 13.7026 -121.185 3 77 6 316
1987263N10241 1987 78 EP MM OTIS 1987-09-21 21:00:00 TS 13.9081 -121.411 main 1551 1547 P_________P___ EP151987 13.9075 -121.415 HU 90 2 13.9098 -121.398 3 83 6 316
1987263N10241 1987 78 EP MM OTIS 1987-09-22 00:00:00 TS 14.1000 -121.600 90 hurdat_epa main 1547 1536 O_________O___ hurdat_epa EP151987 14.1000 -121.600 HU 90 2 14.1000 -121.600 4 90 5 323
1987263N10241 1987 78 EP MM OTIS 1987-09-22 03:00:00 TS 14.3039 -121.712 main 1536 1526 P_________P___ EP151987 14.3074 -121.700 HU 95 2 14.2933 -121.748 4 92 5 331
1987263N10241 1987 78 EP MM OTIS 1987-09-22 06:00:00 TS 14.4931 -121.821 100 hurdat_epa main 1526 1524 O_________P___ hurdat_epa EP151987 14.5000 -121.800 HU 100 3 14.4723 -121.885 4 95 4 322
1987263N10241 1987 78 EP MM OTIS 1987-09-22 09:00:00 TS 14.6532 -121.991 main 1523 1522 P_________P___ EP151987 14.6575 -121.978 HU 100 3 14.6401 -122.030 4 97 5 310
1987263N10241 1987 78 EP MM OTIS 1987-09-22 12:00:00 TS 14.8000 -122.200 100 hurdat_epa main 1529 1528 O_________O___ hurdat_epa EP151987 14.8000 -122.200 HU 100 3 14.8000 -122.200 4 100 5 305
1987263N10241 1987 78 EP MM OTIS 1987-09-22 15:00:00 TS 14.9508 -122.434 main 1527 1527 P_________P___ EP151987 14.9500 -122.443 HU 100 3 14.9531 -122.409 4 100 6 303
1987263N10241 1987 78 EP MM OTIS 1987-09-22 18:00:00 TS 15.1000 -122.687 100 hurdat_epa main 1541 1541 O_________P___ hurdat_epa EP151987 15.1000 -122.700 HU 100 3 15.0999 -122.648 4 100 6 301
1987263N10241 1987 78 EP MM OTIS 1987-09-22 21:00:00 TS 15.2492 -122.941 main 1548 1547 P_________P___ EP151987 15.2500 -122.950 HU 100 3 15.2468 -122.912 4 100 6 301
1987263N10241 1987 78 EP MM OTIS 1987-09-23 00:00:00 TS 15.4000 -123.200 100 hurdat_epa main 1555 1555 O_________O___ hurdat_epa EP151987 15.4000 -123.200 HU 100 3 15.4000 -123.200 4 100 6 302
1987263N10241 1987 78 EP MM OTIS 1987-09-23 03:00:00 TS 15.5498 -123.448 main 1563 1563 P_________P___ EP151987 15.5424 -123.428 HU 95 2 15.5719 -123.507 4 97 6 301
1987263N10241 1987 78 EP MM OTIS 1987-09-23 06:00:00 TS 15.7125 -123.734 90 hurdat_epa main 1571 1571 O_________P___ hurdat_epa EP151987 15.7000 -123.700 HU 90 2 15.7501 -123.835 4 95 7 299
1987263N10241 1987 78 EP MM OTIS 1987-09-23 09:00:00 TS 15.9071 -124.117 main 1588 1588 P_________P___ EP151987 15.9001 -124.100 HU 90 2 15.9282 -124.170 4 92 8 298
1987263N10241 1987 78 EP MM OTIS 1987-09-23 12:00:00 TS 16.1000 -124.500 90 hurdat_epa main 1607 1607 O_________O___ hurdat_epa EP151987 16.1000 -124.500 HU 90 2 16.1000 -124.500 4 90 7 299
1987263N10241 1987 78 EP MM OTIS 1987-09-23 15:00:00 TS 16.2593 -124.770 main 1618 1618 P_________P___ EP151987 16.2573 -124.758 HU 90 2 16.2651 -124.807 4 92 6 301
1987263N10241 1987 78 EP MM OTIS 1987-09-23 18:00:00 TS 16.4056 -125.027 90 hurdat_epa main 1627 1626 O_________P___ hurdat_epa EP151987 16.4000 -125.000 HU 90 2 16.4223 -125.108 4 95 6 298
1987263N10241 1987 78 EP MM OTIS 1987-09-23 21:00:00 TS 16.5602 -125.352 main 1637 1637 P_________P___ EP151987 16.5575 -125.335 HU 95 2 16.5683 -125.404 4 97 7 295
1987263N10241 1987 78 EP MM OTIS 1987-09-24 00:00:00 TS 16.7000 -125.700 100 hurdat_epa main 1648 1648 O_________O___ hurdat_epa EP151987 16.7000 -125.700 HU 100 3 16.7000 -125.700 4 100 7 291
1987263N10241 1987 78 EP MM OTIS 1987-09-24 03:00:00 TS 16.8101 -126.043 main 1661 1661 P_________P___ EP151987 16.8075 -126.065 HU 100 3 16.8180 -125.976 4 98 7 288
1987263N10241 1987 78 EP MM OTIS 1987-09-24 06:00:00 TS 16.9055 -126.364 100 hurdat_epa main 1680 1679 O_________P___ hurdat_epa EP151987 16.9000 -126.400 HU 100 3 16.9219 -126.255 4 97 6 289
1987263N10241 1987 78 EP MM OTIS 1987-09-24 09:00:00 TS 16.9979 -126.621 main 1686 1686 P_________P___ EP151987 16.9923 -126.643 HU 97 3 17.0148 -126.557 4 96 5 291
1987263N10241 1987 78 EP MM OTIS 1987-09-24 12:00:00 TS 17.1000 -126.900 95 hurdat_epa main 1700 1700 O_________O___ hurdat_epa EP151987 17.1000 -126.900 HU 95 2 17.1000 -126.900 4 95 7 292
1987263N10241 1987 78 EP MM OTIS 1987-09-24 15:00:00 TS 17.2483 -127.268 main 1722 1714 P_________P___ EP151987 17.2649 -127.262 HU 87 2 17.1982 -127.286 4 91 8 289
1987263N10241 1987 78 EP MM OTIS 1987-09-24 18:00:00 TS 17.3718 -127.704 80 hurdat_epa main 1737 1737 O_________P___ hurdat_epa EP151987 17.4000 -127.700 HU 80 1 17.2871 -127.717 4 87 9 280
1987263N10241 1987 78 EP MM OTIS 1987-09-24 21:00:00 TS 17.4062 -128.186 main 1775 1775 P_________P___ EP151987 17.4225 -128.185 HU 80 1 17.3574 -128.189 4 83 10 272
1987263N10241 1987 78 EP MM OTIS 1987-09-25 00:00:00 TS 17.4000 -128.700 80 hurdat_epa main 1814 1814 O_________O___ hurdat_epa EP151987 17.4000 -128.700 HU 80 1 17.4000 -128.700 4 80 10 270
1987263N10241 1987 78 EP MM OTIS 1987-09-25 03:00:00 TS 17.4061 -129.185 main 1854 1854 P_________P___ EP151987 17.4072 -129.177 HU 77 1 17.4030 -129.207 4 73 10 270
1987263N10241 1987 78 EP MM OTIS 1987-09-25 06:00:00 TS 17.3947 -129.713 75 hurdat_epa main 1895 1895 O_________P___ hurdat_epa EP151987 17.4000 -129.700 HU 75 1 17.3788 -129.753 4 67 11 267
1987263N10241 1987 78 EP MM OTIS 1987-09-25 09:00:00 TS 17.3475 -130.327 main 1951 1951 P_________P___ EP151987 17.3499 -130.320 HU 65 1 17.3402 -130.348 4 61 12 266
1987263N10241 1987 78 EP MM OTIS 1987-09-25 12:00:00 TS 17.3000 -131.000 55 hurdat_epa main 2009 2009 O_________O___ hurdat_epa EP151987 17.3000 -131.000 TS 55 0 17.3000 -131.000 2 55 13 268
1987263N10241 1987 78 EP MM OTIS 1987-09-25 15:00:00 TS 17.2914 -131.680 main 2068 2068 P_________P___ EP151987 17.2996 -131.670 TS 45 0 17.2667 -131.710 2 48 14 269
1987263N10241 1987 78 EP MM OTIS 1987-09-25 18:00:00 TS 17.2837 -132.419 35 hurdat_epa main 2127 2127 O_________P___ hurdat_epa EP151987 17.3000 -132.400 TS 35 0 17.2347 -132.476 2 42 15 268
1987263N10241 1987 78 EP MM OTIS 1987-09-25 21:00:00 TS 17.2401 -133.246 main 2203 2198 P_________P___ EP151987 17.2500 -133.235 TS 32 -1 17.2103 -133.279 2 36 16 267
1987263N10241 1987 78 EP MM OTIS 1987-09-26 00:00:00 TS 17.2000 -134.100 30 hurdat_epa main 2198 2114 O_________O___ hurdat_epa EP151987 17.2000 -134.100 TD 30 -1 17.2000 -134.100 1 30 16 268
1987263N10241 1987 78 EP MM OTIS 1987-09-26 03:00:00 TS 17.1871 -134.913 main 2114 2031 P_________P___ EP151987 17.1845 -134.900 TD 30 -1 17.1949 -134.950 1 30 16 270
1987263N10241 1987 78 EP MM OTIS 1987-09-26 06:00:00 TS 17.2015 -135.727 30 hurdat_epa main 2031 1947 O_________P___ hurdat_epa EP151987 17.2000 -135.700 TD 30 -1 17.2060 -135.808 1 30 16 272
1987263N10241 1987 78 EP MM OTIS 1987-09-26 09:00:00 TS 17.2361 -136.589 main 1937 1851 P_________P___ EP151987 17.2351 -136.572 TD 30 -1 17.2390 -136.637 1 30 16 274
1987263N10241 1987 78 EP MM OTIS 1987-09-26 12:00:00 TS 17.3000 -137.400 30 hurdat_epa main 1851 1776 O_________O___ hurdat_epa EP151987 17.3000 -137.400 TD 30 -1 17.3000 -137.400 1 30 14 276
1987263N10241 1987 78 EP MM OTIS 1987-09-26 15:00:00 TS 17.3923 -138.088 main 1776 1711 P_________P___ EP151987 17.3926 -138.092 TD 27 -1 17.3916 -138.075 1 27 13 279
1987263N10241 1987 78 EP MM OTIS 1987-09-26 18:00:00 TS 17.5000 -138.700 25 hurdat_epa main 1711 O_________O___ hurdat_epa EP151987 17.5000 -138.700 TD 25 -1 17.5000 -138.700 1 25 12 280

IBTrACS Databaseについて

本データベースは、米国NOAAが公開する1842年以降の世界の熱帯低気圧のベストトラックデータアーカイブInternational Best Track Archive for Climate Stewardship (IBTrACS)を、ウェブで閲覧しやすい形式に変換したものです。

最終更新日:2021-10-08